sensor_id;sensor_type;location;lat;lon;timestamp;P1;durP1;ratioP1;P2;durP2;ratioP2
76786;SDS011;65739;51.482;5.702;2023-08-24T00:00:19;13.15;;;5.00;;
76786;SDS011;65739;51.482;5.702;2023-08-24T00:02:45;12.40;;;5.25;;
76786;SDS011;65739;51.482;5.702;2023-08-24T00:05:11;9.38;;;5.05;;
76786;SDS011;65739;51.482;5.702;2023-08-24T00:07:38;12.75;;;5.43;;
76786;SDS011;65739;51.482;5.702;2023-08-24T00:10:03;11.10;;;5.22;;
76786;SDS011;65739;51.482;5.702;2023-08-24T00:12:29;13.27;;;5.55;;
76786;SDS011;65739;51.482;5.702;2023-08-24T00:14:55;12.32;;;5.53;;
76786;SDS011;65739;51.482;5.702;2023-08-24T00:17:20;11.57;;;6.03;;
76786;SDS011;65739;51.482;5.702;2023-08-24T00:19:47;14.65;;;5.70;;
76786;SDS011;65739;51.482;5.702;2023-08-24T00:22:13;12.63;;;5.90;;
76786;SDS011;65739;51.482;5.702;2023-08-24T00:24:39;8.40;;;5.82;;
76786;SDS011;65739;51.482;5.702;2023-08-24T00:27:04;7.20;;;5.80;;
76786;SDS011;65739;51.482;5.702;2023-08-24T00:29:30;13.23;;;6.20;;
76786;SDS011;65739;51.482;5.702;2023-08-24T00:31:55;8.73;;;5.72;;
76786;SDS011;65739;51.482;5.702;2023-08-24T00:34:22;10.13;;;5.97;;
76786;SDS011;65739;51.482;5.702;2023-08-24T00:36:48;8.95;;;5.90;;
76786;SDS011;65739;51.482;5.702;2023-08-24T00:39:13;13.02;;;6.63;;
76786;SDS011;65739;51.482;5.702;2023-08-24T00:41:39;10.18;;;6.00;;
76786;SDS011;65739;51.482;5.702;2023-08-24T00:44:06;10.93;;;5.88;;
76786;SDS011;65739;51.482;5.702;2023-08-24T00:46:32;14.13;;;6.25;;
76786;SDS011;65739;51.482;5.702;2023-08-24T00:48:59;11.02;;;6.55;;
76786;SDS011;65739;51.482;5.702;2023-08-24T00:51:24;9.93;;;5.78;;
76786;SDS011;65739;51.482;5.702;2023-08-24T00:53:50;13.75;;;6.90;;
76786;SDS011;65739;51.482;5.702;2023-08-24T00:56:16;12.25;;;6.30;;
76786;SDS011;65739;51.482;5.702;2023-08-24T00:58:42;13.15;;;6.57;;
76786;SDS011;65739;51.482;5.702;2023-08-24T01:01:09;14.50;;;7.07;;
76786;SDS011;65739;51.482;5.702;2023-08-24T01:03:35;8.70;;;7.20;;
76786;SDS011;65739;51.482;5.702;2023-08-24T01:06:00;13.70;;;6.78;;
76786;SDS011;65739;51.482;5.702;2023-08-24T01:08:26;10.98;;;6.60;;
76786;SDS011;65739;51.482;5.702;2023-08-24T01:16:31;10.75;;;6.75;;
76786;SDS011;65739;51.482;5.702;2023-08-24T01:18:58;11.95;;;6.70;;
76786;SDS011;65739;51.482;5.702;2023-08-24T01:21:25;12.90;;;7.30;;
76786;SDS011;65739;51.482;5.702;2023-08-24T01:29:08;10.60;;;7.15;;
76786;SDS011;65739;51.482;5.702;2023-08-24T01:31:34;14.23;;;7.00;;
76786;SDS011;65739;51.482;5.702;2023-08-24T01:34:00;11.85;;;7.13;;
76786;SDS011;65739;51.482;5.702;2023-08-24T01:36:26;16.25;;;8.00;;
76786;SDS011;65739;51.482;5.702;2023-08-24T01:38:58;10.95;;;7.57;;
76786;SDS011;65739;51.482;5.702;2023-08-24T01:41:36;10.73;;;7.75;;
76786;SDS011;65739;51.482;5.702;2023-08-24T01:44:07;10.23;;;7.50;;
76786;SDS011;65739;51.482;5.702;2023-08-24T01:46:37;11.03;;;7.73;;
76786;SDS011;65739;51.482;5.702;2023-08-24T01:49:03;12.98;;;7.18;;
76786;SDS011;65739;51.482;5.702;2023-08-24T01:51:30;8.80;;;6.60;;
76786;SDS011;65739;51.482;5.702;2023-08-24T01:53:57;15.52;;;8.30;;
76786;SDS011;65739;51.482;5.702;2023-08-24T01:56:23;17.25;;;8.18;;
76786;SDS011;65739;51.482;5.702;2023-08-24T01:58:49;9.35;;;7.45;;
76786;SDS011;65739;51.482;5.702;2023-08-24T02:01:14;12.02;;;8.10;;
76786;SDS011;65739;51.482;5.702;2023-08-24T02:03:40;10.45;;;7.18;;
76786;SDS011;65739;51.482;5.702;2023-08-24T02:06:06;11.57;;;8.05;;
76786;SDS011;65739;51.482;5.702;2023-08-24T02:08:32;13.88;;;7.35;;
76786;SDS011;65739;51.482;5.702;2023-08-24T02:10:57;15.13;;;8.00;;
76786;SDS011;65739;51.482;5.702;2023-08-24T02:13:23;11.73;;;7.75;;
76786;SDS011;65739;51.482;5.702;2023-08-24T02:15:49;9.25;;;7.78;;
76786;SDS011;65739;51.482;5.702;2023-08-24T02:18:14;16.88;;;7.70;;
76786;SDS011;65739;51.482;5.702;2023-08-24T02:20:40;11.32;;;7.28;;
76786;SDS011;65739;51.482;5.702;2023-08-24T02:23:05;12.77;;;7.28;;
76786;SDS011;65739;51.482;5.702;2023-08-24T02:25:31;11.02;;;6.88;;
76786;SDS011;65739;51.482;5.702;2023-08-24T02:27:58;11.23;;;6.90;;
76786;SDS011;65739;51.482;5.702;2023-08-24T02:30:23;8.45;;;7.30;;
76786;SDS011;65739;51.482;5.702;2023-08-24T02:32:49;13.23;;;7.20;;
76786;SDS011;65739;51.482;5.702;2023-08-24T02:35:15;11.75;;;7.55;;
76786;SDS011;65739;51.482;5.702;2023-08-24T02:37:42;11.43;;;7.78;;
76786;SDS011;65739;51.482;5.702;2023-08-24T02:40:07;10.70;;;7.60;;
76786;SDS011;65739;51.482;5.702;2023-08-24T02:42:34;13.68;;;7.75;;
76786;SDS011;65739;51.482;5.702;2023-08-24T02:45:00;11.75;;;7.57;;
76786;SDS011;65739;51.482;5.702;2023-08-24T02:47:26;9.13;;;7.03;;
76786;SDS011;65739;51.482;5.702;2023-08-24T02:49:51;12.73;;;7.72;;
76786;SDS011;65739;51.482;5.702;2023-08-24T02:52:17;9.35;;;6.78;;
76786;SDS011;65739;51.482;5.702;2023-08-24T02:54:42;12.80;;;7.00;;
76786;SDS011;65739;51.482;5.702;2023-08-24T02:57:08;9.95;;;7.88;;
76786;SDS011;65739;51.482;5.702;2023-08-24T02:59:34;11.98;;;7.85;;
76786;SDS011;65739;51.482;5.702;2023-08-24T03:01:59;12.00;;;7.20;;
76786;SDS011;65739;51.482;5.702;2023-08-24T03:04:25;12.57;;;7.28;;
76786;SDS011;65739;51.482;5.702;2023-08-24T03:06:51;12.32;;;7.60;;
76786;SDS011;65739;51.482;5.702;2023-08-24T03:09:16;9.65;;;7.82;;
76786;SDS011;65739;51.482;5.702;2023-08-24T03:11:42;16.33;;;8.13;;
76786;SDS011;65739;51.482;5.702;2023-08-24T03:14:07;14.40;;;7.97;;
76786;SDS011;65739;51.482;5.702;2023-08-24T03:16:33;17.35;;;8.80;;
76786;SDS011;65739;51.482;5.702;2023-08-24T03:18:58;14.93;;;8.73;;
76786;SDS011;65739;51.482;5.702;2023-08-24T03:21:24;12.82;;;8.50;;
76786;SDS011;65739;51.482;5.702;2023-08-24T03:23:49;15.68;;;8.82;;
76786;SDS011;65739;51.482;5.702;2023-08-24T03:26:15;17.88;;;9.95;;
76786;SDS011;65739;51.482;5.702;2023-08-24T03:28:41;19.25;;;9.90;;
76786;SDS011;65739;51.482;5.702;2023-08-24T03:31:08;13.00;;;10.40;;
76786;SDS011;65739;51.482;5.702;2023-08-24T03:33:33;14.80;;;11.57;;
76786;SDS011;65739;51.482;5.702;2023-08-24T03:35:59;17.65;;;12.35;;
76786;SDS011;65739;51.482;5.702;2023-08-24T03:38:25;19.38;;;13.10;;
76786;SDS011;65739;51.482;5.702;2023-08-24T03:40:51;187.80;;;19.45;;
76786;SDS011;65739;51.482;5.702;2023-08-24T03:43:17;33.47;;;14.00;;
76786;SDS011;65739;51.482;5.702;2023-08-24T03:45:42;18.95;;;13.07;;
76786;SDS011;65739;51.482;5.702;2023-08-24T03:48:09;24.30;;;15.30;;
76786;SDS011;65739;51.482;5.702;2023-08-24T03:50:34;26.35;;;15.57;;
76786;SDS011;65739;51.482;5.702;2023-08-24T03:53:00;25.30;;;17.45;;
76786;SDS011;65739;51.482;5.702;2023-08-24T03:55:25;22.65;;;16.35;;
76786;SDS011;65739;51.482;5.702;2023-08-24T03:57:51;24.73;;;17.55;;
76786;SDS011;65739;51.482;5.702;2023-08-24T04:00:17;26.77;;;17.88;;
76786;SDS011;65739;51.482;5.702;2023-08-24T04:02:43;28.33;;;18.77;;
76786;SDS011;65739;51.482;5.702;2023-08-24T04:05:09;26.80;;;19.83;;
76786;SDS011;65739;51.482;5.702;2023-08-24T04:07:34;30.17;;;18.75;;
76786;SDS011;65739;51.482;5.702;2023-08-24T04:10:03;33.72;;;18.73;;
76786;SDS011;65739;51.482;5.702;2023-08-24T04:12:30;32.08;;;19.15;;
76786;SDS011;65739;51.482;5.702;2023-08-24T04:14:56;29.25;;;17.55;;
76786;SDS011;65739;51.482;5.702;2023-08-24T04:17:22;27.27;;;17.98;;
76786;SDS011;65739;51.482;5.702;2023-08-24T04:19:48;29.15;;;18.63;;
76786;SDS011;65739;51.482;5.702;2023-08-24T04:22:14;29.42;;;18.40;;
76786;SDS011;65739;51.482;5.702;2023-08-24T04:24:40;27.95;;;17.75;;
76786;SDS011;65739;51.482;5.702;2023-08-24T04:27:06;29.52;;;18.40;;
76786;SDS011;65739;51.482;5.702;2023-08-24T04:29:31;31.63;;;20.20;;
76786;SDS011;65739;51.482;5.702;2023-08-24T04:31:58;28.23;;;17.88;;
76786;SDS011;65739;51.482;5.702;2023-08-24T04:34:23;26.15;;;18.77;;
76786;SDS011;65739;51.482;5.702;2023-08-24T04:36:49;27.75;;;19.13;;
76786;SDS011;65739;51.482;5.702;2023-08-24T04:39:15;29.08;;;18.27;;
76786;SDS011;65739;51.482;5.702;2023-08-24T04:41:40;26.15;;;18.85;;
76786;SDS011;65739;51.482;5.702;2023-08-24T04:44:06;27.38;;;18.83;;
76786;SDS011;65739;51.482;5.702;2023-08-24T04:46:33;25.25;;;18.23;;
76786;SDS011;65739;51.482;5.702;2023-08-24T04:48:58;24.83;;;18.55;;
76786;SDS011;65739;51.482;5.702;2023-08-24T04:51:24;30.50;;;19.40;;
76786;SDS011;65739;51.482;5.702;2023-08-24T04:53:49;32.53;;;20.42;;
76786;SDS011;65739;51.482;5.702;2023-08-24T04:56:15;30.67;;;19.55;;
76786;SDS011;65739;51.482;5.702;2023-08-24T04:58:43;31.00;;;19.35;;
76786;SDS011;65739;51.482;5.702;2023-08-24T05:01:25;28.83;;;19.52;;
76786;SDS011;65739;51.482;5.702;2023-08-24T05:03:51;28.73;;;20.40;;
76786;SDS011;65739;51.482;5.702;2023-08-24T05:06:18;29.83;;;20.05;;
76786;SDS011;65739;51.482;5.702;2023-08-24T05:08:44;26.08;;;18.98;;
76786;SDS011;65739;51.482;5.702;2023-08-24T05:11:13;25.70;;;18.00;;
76786;SDS011;65739;51.482;5.702;2023-08-24T05:13:42;28.58;;;19.30;;
76786;SDS011;65739;51.482;5.702;2023-08-24T05:16:09;29.42;;;20.77;;
76786;SDS011;65739;51.482;5.702;2023-08-24T05:18:35;35.92;;;22.17;;
76786;SDS011;65739;51.482;5.702;2023-08-24T05:21:03;28.58;;;20.45;;
76786;SDS011;65739;51.482;5.702;2023-08-24T05:23:30;32.15;;;21.67;;
76786;SDS011;65739;51.482;5.702;2023-08-24T05:25:56;32.95;;;21.00;;
76786;SDS011;65739;51.482;5.702;2023-08-24T05:28:23;31.75;;;21.30;;
76786;SDS011;65739;51.482;5.702;2023-08-24T05:30:52;34.13;;;22.25;;
76786;SDS011;65739;51.482;5.702;2023-08-24T05:33:22;32.80;;;21.95;;
76786;SDS011;65739;51.482;5.702;2023-08-24T05:35:48;29.23;;;21.00;;
76786;SDS011;65739;51.482;5.702;2023-08-24T05:38:14;27.48;;;19.85;;
76786;SDS011;65739;51.482;5.702;2023-08-24T05:40:40;31.10;;;20.70;;
76786;SDS011;65739;51.482;5.702;2023-08-24T05:43:07;31.13;;;20.92;;
76786;SDS011;65739;51.482;5.702;2023-08-24T05:45:36;32.15;;;22.08;;
76786;SDS011;65739;51.482;5.702;2023-08-24T05:48:04;31.10;;;22.40;;
76786;SDS011;65739;51.482;5.702;2023-08-24T05:50:30;32.13;;;22.40;;
76786;SDS011;65739;51.482;5.702;2023-08-24T05:52:55;34.75;;;23.30;;
76786;SDS011;65739;51.482;5.702;2023-08-24T05:55:21;35.30;;;23.75;;
76786;SDS011;65739;51.482;5.702;2023-08-24T05:57:47;31.05;;;23.60;;
76786;SDS011;65739;51.482;5.702;2023-08-24T06:00:13;33.88;;;24.73;;
76786;SDS011;65739;51.482;5.702;2023-08-24T06:02:39;36.88;;;24.50;;
76786;SDS011;65739;51.482;5.702;2023-08-24T06:05:05;41.58;;;24.80;;
76786;SDS011;65739;51.482;5.702;2023-08-24T06:07:31;42.03;;;25.08;;
76786;SDS011;65739;51.482;5.702;2023-08-24T06:09:57;33.08;;;24.05;;
76786;SDS011;65739;51.482;5.702;2023-08-24T06:12:23;37.60;;;23.65;;
76786;SDS011;65739;51.482;5.702;2023-08-24T06:14:48;29.55;;;22.15;;
76786;SDS011;65739;51.482;5.702;2023-08-24T06:17:14;33.80;;;21.90;;
76786;SDS011;65739;51.482;5.702;2023-08-24T06:19:39;34.17;;;22.70;;
76786;SDS011;65739;51.482;5.702;2023-08-24T06:22:05;30.27;;;22.25;;
76786;SDS011;65739;51.482;5.702;2023-08-24T06:24:30;31.35;;;22.55;;
76786;SDS011;65739;51.482;5.702;2023-08-24T06:26:56;33.72;;;22.83;;
76786;SDS011;65739;51.482;5.702;2023-08-24T06:29:22;25.65;;;19.95;;
76786;SDS011;65739;51.482;5.702;2023-08-24T06:31:47;31.85;;;21.88;;
76786;SDS011;65739;51.482;5.702;2023-08-24T06:34:13;31.00;;;21.52;;
76786;SDS011;65739;51.482;5.702;2023-08-24T06:36:38;34.20;;;22.08;;
76786;SDS011;65739;51.482;5.702;2023-08-24T06:39:04;26.65;;;20.13;;
76786;SDS011;65739;51.482;5.702;2023-08-24T06:41:34;35.00;;;22.02;;
76786;SDS011;65739;51.482;5.702;2023-08-24T06:44:00;27.35;;;19.90;;
76786;SDS011;65739;51.482;5.702;2023-08-24T06:46:25;29.58;;;20.45;;
76786;SDS011;65739;51.482;5.702;2023-08-24T06:48:51;25.27;;;18.90;;
76786;SDS011;65739;51.482;5.702;2023-08-24T06:51:16;26.55;;;18.50;;
76786;SDS011;65739;51.482;5.702;2023-08-24T06:53:42;26.35;;;18.55;;
76786;SDS011;65739;51.482;5.702;2023-08-24T06:56:07;25.52;;;18.35;;
76786;SDS011;65739;51.482;5.702;2023-08-24T06:58:34;27.20;;;18.67;;
76786;SDS011;65739;51.482;5.702;2023-08-24T07:00:59;27.13;;;17.50;;
76786;SDS011;65739;51.482;5.702;2023-08-24T07:03:25;22.08;;;16.98;;
76786;SDS011;65739;51.482;5.702;2023-08-24T07:05:51;24.35;;;16.00;;
76786;SDS011;65739;51.482;5.702;2023-08-24T07:08:16;23.30;;;16.77;;
76786;SDS011;65739;51.482;5.702;2023-08-24T07:10:42;27.20;;;15.73;;
76786;SDS011;65739;51.482;5.702;2023-08-24T07:13:08;21.90;;;16.00;;
76786;SDS011;65739;51.482;5.702;2023-08-24T07:15:34;18.63;;;14.60;;
76786;SDS011;65739;51.482;5.702;2023-08-24T07:18:00;17.65;;;14.80;;
76786;SDS011;65739;51.482;5.702;2023-08-24T07:20:26;21.13;;;14.15;;
76786;SDS011;65739;51.482;5.702;2023-08-24T07:22:52;19.13;;;13.43;;
76786;SDS011;65739;51.482;5.702;2023-08-24T07:25:19;21.38;;;13.27;;
76786;SDS011;65739;51.482;5.702;2023-08-24T07:27:46;18.85;;;13.48;;
76786;SDS011;65739;51.482;5.702;2023-08-24T07:30:12;17.35;;;13.05;;
76786;SDS011;65739;51.482;5.702;2023-08-24T07:32:38;16.35;;;11.70;;
76786;SDS011;65739;51.482;5.702;2023-08-24T07:35:03;14.88;;;11.45;;
76786;SDS011;65739;51.482;5.702;2023-08-24T07:37:31;15.07;;;10.60;;
76786;SDS011;65739;51.482;5.702;2023-08-24T07:39:56;18.17;;;10.45;;
76786;SDS011;65739;51.482;5.702;2023-08-24T07:42:22;15.20;;;9.52;;
76786;SDS011;65739;51.482;5.702;2023-08-24T07:44:48;19.02;;;10.38;;
76786;SDS011;65739;51.482;5.702;2023-08-24T07:47:13;16.20;;;9.88;;
76786;SDS011;65739;51.482;5.702;2023-08-24T07:49:39;12.75;;;9.07;;
76786;SDS011;65739;51.482;5.702;2023-08-24T07:52:11;10.48;;;8.70;;
76786;SDS011;65739;51.482;5.702;2023-08-24T07:54:39;14.93;;;9.52;;
76786;SDS011;65739;51.482;5.702;2023-08-24T07:57:05;13.60;;;8.27;;
76786;SDS011;65739;51.482;5.702;2023-08-24T07:59:31;15.23;;;8.57;;
76786;SDS011;65739;51.482;5.702;2023-08-24T08:01:56;11.90;;;7.95;;
76786;SDS011;65739;51.482;5.702;2023-08-24T08:04:22;11.77;;;7.07;;
76786;SDS011;65739;51.482;5.702;2023-08-24T08:06:47;15.48;;;7.07;;
76786;SDS011;65739;51.482;5.702;2023-08-24T08:09:13;12.98;;;7.43;;
76786;SDS011;65739;51.482;5.702;2023-08-24T08:11:39;8.15;;;6.88;;
76786;SDS011;65739;51.482;5.702;2023-08-24T08:14:04;13.57;;;6.72;;
76786;SDS011;65739;51.482;5.702;2023-08-24T08:16:30;10.88;;;7.63;;
76786;SDS011;65739;51.482;5.702;2023-08-24T08:18:55;11.20;;;6.43;;
76786;SDS011;65739;51.482;5.702;2023-08-24T08:21:21;10.85;;;6.43;;
76786;SDS011;65739;51.482;5.702;2023-08-24T08:23:48;11.80;;;6.60;;
76786;SDS011;65739;51.482;5.702;2023-08-24T08:26:14;10.45;;;6.75;;
76786;SDS011;65739;51.482;5.702;2023-08-24T08:28:39;11.98;;;6.50;;
76786;SDS011;65739;51.482;5.702;2023-08-24T08:31:05;9.43;;;5.90;;
76786;SDS011;65739;51.482;5.702;2023-08-24T08:33:31;7.88;;;5.88;;
76786;SDS011;65739;51.482;5.702;2023-08-24T08:35:56;9.65;;;5.75;;
76786;SDS011;65739;51.482;5.702;2023-08-24T08:38:22;11.70;;;6.15;;
76786;SDS011;65739;51.482;5.702;2023-08-24T08:40:50;9.88;;;5.45;;
76786;SDS011;65739;51.482;5.702;2023-08-24T08:43:18;8.73;;;5.32;;
76786;SDS011;65739;51.482;5.702;2023-08-24T08:45:45;10.48;;;5.35;;
76786;SDS011;65739;51.482;5.702;2023-08-24T08:48:12;10.20;;;5.32;;
76786;SDS011;65739;51.482;5.702;2023-08-24T08:50:37;10.88;;;4.93;;
76786;SDS011;65739;51.482;5.702;2023-08-24T08:53:03;8.10;;;4.80;;
76786;SDS011;65739;51.482;5.702;2023-08-24T08:55:29;9.23;;;4.70;;
76786;SDS011;65739;51.482;5.702;2023-08-24T08:57:56;8.52;;;4.35;;
76786;SDS011;65739;51.482;5.702;2023-08-24T09:00:24;7.97;;;4.25;;
76786;SDS011;65739;51.482;5.702;2023-08-24T09:02:49;11.27;;;4.97;;
76786;SDS011;65739;51.482;5.702;2023-08-24T09:05:17;12.55;;;6.60;;
76786;SDS011;65739;51.482;5.702;2023-08-24T09:07:44;10.68;;;6.57;;
76786;SDS011;65739;51.482;5.702;2023-08-24T09:10:12;12.52;;;6.22;;
76786;SDS011;65739;51.482;5.702;2023-08-24T09:12:37;10.45;;;5.85;;
76786;SDS011;65739;51.482;5.702;2023-08-24T09:15:03;12.25;;;5.40;;
76786;SDS011;65739;51.482;5.702;2023-08-24T09:17:31;9.55;;;4.95;;
76786;SDS011;65739;51.482;5.702;2023-08-24T09:19:58;10.00;;;5.35;;
76786;SDS011;65739;51.482;5.702;2023-08-24T09:22:24;8.95;;;5.80;;
76786;SDS011;65739;51.482;5.702;2023-08-24T09:24:50;11.55;;;5.93;;
76786;SDS011;65739;51.482;5.702;2023-08-24T09:27:16;11.00;;;5.80;;
76786;SDS011;65739;51.482;5.702;2023-08-24T09:29:43;12.15;;;5.40;;
76786;SDS011;65739;51.482;5.702;2023-08-24T09:32:12;10.68;;;6.00;;
76786;SDS011;65739;51.482;5.702;2023-08-24T09:34:37;9.38;;;6.28;;
76786;SDS011;65739;51.482;5.702;2023-08-24T09:37:03;8.85;;;5.25;;
76786;SDS011;65739;51.482;5.702;2023-08-24T09:39:29;9.27;;;4.72;;
76786;SDS011;65739;51.482;5.702;2023-08-24T09:41:55;12.93;;;5.90;;
76786;SDS011;65739;51.482;5.702;2023-08-24T09:44:28;6.90;;;4.85;;
76786;SDS011;65739;51.482;5.702;2023-08-24T09:46:53;5.32;;;4.20;;
76786;SDS011;65739;51.482;5.702;2023-08-24T09:49:19;8.02;;;4.97;;
76786;SDS011;65739;51.482;5.702;2023-08-24T09:51:45;9.68;;;4.43;;
76786;SDS011;65739;51.482;5.702;2023-08-24T09:54:11;9.45;;;4.20;;
76786;SDS011;65739;51.482;5.702;2023-08-24T09:56:39;6.80;;;4.00;;
76786;SDS011;65739;51.482;5.702;2023-08-24T09:59:11;9.90;;;3.63;;
76786;SDS011;65739;51.482;5.702;2023-08-24T10:01:43;15.55;;;4.25;;
76786;SDS011;65739;51.482;5.702;2023-08-24T10:04:11;6.75;;;3.55;;
76786;SDS011;65739;51.482;5.702;2023-08-24T10:06:46;8.68;;;3.25;;
76786;SDS011;65739;51.482;5.702;2023-08-24T10:10:00;8.30;;;3.20;;
76786;SDS011;65739;51.482;5.702;2023-08-24T10:12:10;8.60;;;3.67;;
76786;SDS011;65739;51.482;5.702;2023-08-24T10:14:48;6.68;;;3.72;;
76786;SDS011;65739;51.482;5.702;2023-08-24T10:17:32;4.60;;;3.00;;
76786;SDS011;65739;51.482;5.702;2023-08-24T10:20:01;8.87;;;3.57;;
76786;SDS011;65739;51.482;5.702;2023-08-24T10:22:29;6.70;;;3.10;;
76786;SDS011;65739;51.482;5.702;2023-08-24T10:24:55;6.75;;;3.10;;
76786;SDS011;65739;51.482;5.702;2023-08-24T10:27:22;9.65;;;3.47;;
76786;SDS011;65739;51.482;5.702;2023-08-24T10:29:51;4.13;;;3.20;;
76786;SDS011;65739;51.482;5.702;2023-08-24T10:32:16;9.85;;;3.50;;
76786;SDS011;65739;51.482;5.702;2023-08-24T10:34:44;9.85;;;3.28;;
76786;SDS011;65739;51.482;5.702;2023-08-24T10:37:10;9.05;;;3.17;;
76786;SDS011;65739;51.482;5.702;2023-08-24T10:39:45;6.00;;;3.40;;
76786;SDS011;65739;51.482;5.702;2023-08-24T10:42:12;11.23;;;4.20;;
76786;SDS011;65739;51.482;5.702;2023-08-24T10:44:39;7.43;;;3.25;;
76786;SDS011;65739;51.482;5.702;2023-08-24T10:49:37;6.82;;;3.10;;
76786;SDS011;65739;51.482;5.702;2023-08-24T10:52:19;7.07;;;3.55;;
76786;SDS011;65739;51.482;5.702;2023-08-24T10:54:47;6.85;;;3.90;;
76786;SDS011;65739;51.482;5.702;2023-08-24T10:57:20;7.32;;;4.00;;
76786;SDS011;65739;51.482;5.702;2023-08-24T10:59:59;8.63;;;4.20;;
76786;SDS011;65739;51.482;5.702;2023-08-24T11:02:30;10.10;;;3.35;;
76786;SDS011;65739;51.482;5.702;2023-08-24T11:05:17;10.13;;;3.60;;
76786;SDS011;65739;51.482;5.702;2023-08-24T11:07:49;5.78;;;3.88;;
76786;SDS011;65739;51.482;5.702;2023-08-24T11:10:16;6.50;;;3.22;;
76786;SDS011;65739;51.482;5.702;2023-08-24T11:13:25;8.77;;;3.90;;
76786;SDS011;65739;51.482;5.702;2023-08-24T11:15:32;8.88;;;4.70;;
76786;SDS011;65739;51.482;5.702;2023-08-24T11:20:47;10.60;;;4.30;;
76786;SDS011;65739;51.482;5.702;2023-08-24T11:23:18;14.93;;;4.00;;
76786;SDS011;65739;51.482;5.702;2023-08-24T11:25:45;9.68;;;4.30;;
76786;SDS011;65739;51.482;5.702;2023-08-24T11:28:15;10.45;;;4.10;;
76786;SDS011;65739;51.482;5.702;2023-08-24T11:30:45;10.70;;;4.35;;
76786;SDS011;65739;51.482;5.702;2023-08-24T11:33:11;10.75;;;4.70;;
76786;SDS011;65739;51.482;5.702;2023-08-24T11:35:39;9.25;;;4.38;;
76786;SDS011;65739;51.482;5.702;2023-08-24T11:38:08;8.38;;;4.57;;
76786;SDS011;65739;51.482;5.702;2023-08-24T11:40:34;9.85;;;4.60;;
76786;SDS011;65739;51.482;5.702;2023-08-24T11:43:00;10.75;;;4.85;;
76786;SDS011;65739;51.482;5.702;2023-08-24T11:45:32;11.32;;;5.18;;
76786;SDS011;65739;51.482;5.702;2023-08-24T11:48:07;12.73;;;5.00;;
76786;SDS011;65739;51.482;5.702;2023-08-24T11:50:32;10.45;;;4.78;;
76786;SDS011;65739;51.482;5.702;2023-08-24T11:53:01;10.80;;;4.75;;
76786;SDS011;65739;51.482;5.702;2023-08-24T11:55:27;8.77;;;4.60;;
76786;SDS011;65739;51.482;5.702;2023-08-24T11:57:53;8.15;;;4.70;;
76786;SDS011;65739;51.482;5.702;2023-08-24T12:00:22;8.82;;;4.68;;
76786;SDS011;65739;51.482;5.702;2023-08-24T12:02:48;11.97;;;5.57;;
76786;SDS011;65739;51.482;5.702;2023-08-24T12:05:21;13.27;;;5.15;;
76786;SDS011;65739;51.482;5.702;2023-08-24T12:07:51;10.05;;;4.75;;
76786;SDS011;65739;51.482;5.702;2023-08-24T12:10:18;13.63;;;4.57;;
76786;SDS011;65739;51.482;5.702;2023-08-24T12:12:43;9.77;;;4.72;;
76786;SDS011;65739;51.482;5.702;2023-08-24T12:15:14;9.90;;;4.72;;
76786;SDS011;65739;51.482;5.702;2023-08-24T12:17:45;9.77;;;4.55;;
76786;SDS011;65739;51.482;5.702;2023-08-24T12:20:17;7.53;;;4.60;;
76786;SDS011;65739;51.482;5.702;2023-08-24T12:22:49;5.63;;;4.28;;
76786;SDS011;65739;51.482;5.702;2023-08-24T12:25:16;8.75;;;4.10;;
76786;SDS011;65739;51.482;5.702;2023-08-24T12:27:42;7.25;;;4.15;;
76786;SDS011;65739;51.482;5.702;2023-08-24T12:30:07;8.25;;;4.53;;
76786;SDS011;65739;51.482;5.702;2023-08-24T12:32:42;11.95;;;4.57;;
76786;SDS011;65739;51.482;5.702;2023-08-24T12:35:09;9.00;;;4.28;;
76786;SDS011;65739;51.482;5.702;2023-08-24T12:37:35;8.10;;;4.25;;
76786;SDS011;65739;51.482;5.702;2023-08-24T12:40:02;6.40;;;3.90;;
76786;SDS011;65739;51.482;5.702;2023-08-24T12:42:30;8.20;;;4.10;;
76786;SDS011;65739;51.482;5.702;2023-08-24T12:44:56;6.32;;;4.05;;
76786;SDS011;65739;51.482;5.702;2023-08-24T12:47:22;7.10;;;4.28;;
76786;SDS011;65739;51.482;5.702;2023-08-24T12:49:47;8.13;;;4.88;;
76786;SDS011;65739;51.482;5.702;2023-08-24T12:52:13;10.40;;;4.57;;
76786;SDS011;65739;51.482;5.702;2023-08-24T12:54:38;6.22;;;4.55;;
76786;SDS011;65739;51.482;5.702;2023-08-24T12:57:04;13.38;;;5.03;;
76786;SDS011;65739;51.482;5.702;2023-08-24T12:59:29;9.75;;;4.65;;
76786;SDS011;65739;51.482;5.702;2023-08-24T13:01:55;8.10;;;4.10;;
76786;SDS011;65739;51.482;5.702;2023-08-24T13:04:20;14.98;;;4.32;;
76786;SDS011;65739;51.482;5.702;2023-08-24T13:06:46;8.68;;;4.15;;
76786;SDS011;65739;51.482;5.702;2023-08-24T13:09:11;6.30;;;3.83;;
76786;SDS011;65739;51.482;5.702;2023-08-24T13:11:39;4.53;;;3.65;;
76786;SDS011;65739;51.482;5.702;2023-08-24T13:14:04;7.03;;;3.53;;
76786;SDS011;65739;51.482;5.702;2023-08-24T13:16:30;9.75;;;3.53;;
76786;SDS011;65739;51.482;5.702;2023-08-24T13:18:55;9.07;;;3.60;;
76786;SDS011;65739;51.482;5.702;2023-08-24T13:21:21;7.97;;;3.08;;
76786;SDS011;65739;51.482;5.702;2023-08-24T13:23:47;8.00;;;3.10;;
76786;SDS011;65739;51.482;5.702;2023-08-24T13:26:19;6.70;;;3.10;;
76786;SDS011;65739;51.482;5.702;2023-08-24T13:28:46;8.60;;;3.05;;
76786;SDS011;65739;51.482;5.702;2023-08-24T13:31:12;9.15;;;3.35;;
76786;SDS011;65739;51.482;5.702;2023-08-24T13:33:37;10.25;;;3.30;;
76786;SDS011;65739;51.482;5.702;2023-08-24T13:36:03;6.40;;;3.60;;
76786;SDS011;65739;51.482;5.702;2023-08-24T13:38:29;5.50;;;3.25;;
76786;SDS011;65739;51.482;5.702;2023-08-24T13:40:55;9.85;;;3.55;;
76786;SDS011;65739;51.482;5.702;2023-08-24T13:43:21;5.45;;;3.22;;
76786;SDS011;65739;51.482;5.702;2023-08-24T13:45:46;6.75;;;3.58;;
76786;SDS011;65739;51.482;5.702;2023-08-24T13:48:12;8.30;;;3.70;;
76786;SDS011;65739;51.482;5.702;2023-08-24T13:50:37;9.63;;;3.97;;
76786;SDS011;65739;51.482;5.702;2023-08-24T13:53:03;10.48;;;3.72;;
76786;SDS011;65739;51.482;5.702;2023-08-24T13:55:29;8.98;;;3.28;;
76786;SDS011;65739;51.482;5.702;2023-08-24T13:57:55;7.65;;;3.35;;
76786;SDS011;65739;51.482;5.702;2023-08-24T14:00:20;10.73;;;3.95;;
76786;SDS011;65739;51.482;5.702;2023-08-24T14:02:48;8.90;;;4.07;;
76786;SDS011;65739;51.482;5.702;2023-08-24T14:05:14;8.02;;;4.25;;
76786;SDS011;65739;51.482;5.702;2023-08-24T14:07:39;11.02;;;4.07;;
76786;SDS011;65739;51.482;5.702;2023-08-24T14:10:06;7.10;;;4.15;;
76786;SDS011;65739;51.482;5.702;2023-08-24T14:12:32;9.00;;;4.10;;
76786;SDS011;65739;51.482;5.702;2023-08-24T14:14:58;6.60;;;4.03;;
76786;SDS011;65739;51.482;5.702;2023-08-24T14:17:25;7.47;;;3.72;;
76786;SDS011;65739;51.482;5.702;2023-08-24T14:19:50;5.82;;;3.88;;
76786;SDS011;65739;51.482;5.702;2023-08-24T14:22:16;9.25;;;3.80;;
76786;SDS011;65739;51.482;5.702;2023-08-24T14:24:41;5.05;;;3.50;;
76786;SDS011;65739;51.482;5.702;2023-08-24T14:27:07;8.68;;;3.33;;
76786;SDS011;65739;51.482;5.702;2023-08-24T14:29:32;5.82;;;3.35;;
76786;SDS011;65739;51.482;5.702;2023-08-24T14:31:58;7.20;;;3.33;;
76786;SDS011;65739;51.482;5.702;2023-08-24T14:34:24;10.02;;;3.70;;
76786;SDS011;65739;51.482;5.702;2023-08-24T14:36:49;7.75;;;3.28;;
76786;SDS011;65739;51.482;5.702;2023-08-24T14:39:15;6.63;;;3.38;;
76786;SDS011;65739;51.482;5.702;2023-08-24T14:41:40;5.97;;;3.45;;
76786;SDS011;65739;51.482;5.702;2023-08-24T14:44:06;6.63;;;3.28;;
76786;SDS011;65739;51.482;5.702;2023-08-24T14:46:31;9.50;;;3.30;;
76786;SDS011;65739;51.482;5.702;2023-08-24T14:48:58;6.63;;;3.33;;